createdAt,value
2019-05-13T00:06:53.371Z,17.8
2019-05-13T00:16:45.335Z,17.8
2019-05-13T00:26:44.676Z,17.8
2019-05-13T00:36:44.503Z,17.9
2019-05-13T00:46:44.076Z,17.9
2019-05-13T00:56:43.566Z,17.9
2019-05-13T01:06:43.343Z,17.9
2019-05-13T01:16:40.633Z,18
2019-05-13T01:26:39.845Z,18
2019-05-13T01:36:39.059Z,18.1
2019-05-13T01:46:38.274Z,18.1
2019-05-13T01:56:37.489Z,18.1
2019-05-13T02:06:36.700Z,18.1
2019-05-13T02:16:35.907Z,18.2
2019-05-13T02:26:35.122Z,18.2
2019-05-13T02:36:34.341Z,18.2
2019-05-13T02:46:34.121Z,18.2
2019-05-13T02:56:33.104Z,18.3
2019-05-13T03:06:33.079Z,18.3
2019-05-13T03:16:32.411Z,17.6
2019-05-13T03:26:32.130Z,17.6
2019-05-13T03:36:35.495Z,17.6
2019-05-13T03:46:28.830Z,17.7
2019-05-13T03:56:28.051Z,17.6
2019-05-13T04:06:27.268Z,17.7
2019-05-13T04:16:26.479Z,17.8
2019-05-13T04:26:25.689Z,17.7
2019-05-13T04:36:24.910Z,17.8
2019-05-13T04:46:24.175Z,17.9
2019-05-13T04:56:23.353Z,18
2019-05-13T05:06:22.874Z,18.2
2019-05-13T05:16:22.066Z,18.4
2019-05-13T05:26:22.054Z,18.6
2019-05-13T05:36:21.755Z,18.9
2019-05-13T05:46:21.745Z,19.1
2019-05-13T05:56:18.633Z,19.3
2019-05-13T06:06:17.859Z,19.5
2019-05-13T06:16:17.052Z,19.8
2019-05-13T06:26:16.273Z,20.1
2019-05-13T06:36:15.485Z,20.3
2019-05-13T06:46:14.695Z,20.6
2019-05-13T06:56:13.908Z,20.8
2019-05-13T07:06:13.171Z,21.1
2019-05-13T07:16:12.336Z,21.3
2019-05-13T07:26:12.191Z,21.6
2019-05-13T07:36:12.685Z,21.8
2019-05-13T07:46:12.294Z,22.1
2019-05-13T07:56:09.191Z,22.4
2019-05-13T08:06:08.476Z,22.7
2019-05-13T08:16:07.625Z,23
2019-05-13T08:26:06.832Z,23.3
2019-05-13T08:36:06.045Z,23.5
2019-05-13T08:46:05.266Z,23.8
2019-05-13T08:56:04.479Z,23.9
2019-05-13T09:06:03.691Z,24.1
2019-05-13T09:16:02.898Z,24.3
2019-05-13T09:26:02.690Z,24.4
2019-05-13T09:37:03.101Z,24.6
2019-05-13T09:47:02.691Z,24.8
2019-05-13T09:57:01.788Z,24.9
2019-05-13T10:07:01.939Z,25.1
2019-05-13T10:16:59.420Z,25.2
2019-05-13T10:26:58.642Z,25.3
2019-05-13T10:36:57.844Z,25.2
2019-05-13T10:46:57.059Z,25.4
2019-05-13T10:56:59.586Z,25.6
2019-05-13T11:06:55.498Z,25.8
2019-05-13T11:16:54.753Z,25.9
2019-05-13T11:26:53.920Z,26.2
2019-05-13T11:36:53.704Z,26.4
2019-05-13T11:46:53.116Z,26.5
2019-05-13T11:57:01.112Z,26.8
2019-05-13T12:06:54.379Z,26.9
2019-05-13T12:17:53.061Z,27.1
2019-05-13T12:27:52.170Z,27.3
2019-05-13T12:37:53.243Z,27.5
2019-05-13T12:48:53.280Z,27.9
2019-05-13T12:58:52.496Z,28.1
2019-05-13T13:08:51.711Z,28.4
2019-05-13T13:19:54.079Z,28.6
2019-05-13T13:32:13.258Z,28.9
2019-05-13T13:42:12.863Z,29
2019-05-13T13:52:14.082Z,29.2
2019-05-13T14:02:08.246Z,29.3
2019-05-13T14:12:07.448Z,29.4
2019-05-13T14:22:06.662Z,29.6
2019-05-13T14:32:05.871Z,29.6
2019-05-13T14:42:05.093Z,29.7
2019-05-13T14:52:04.303Z,29.8
2019-05-13T15:02:03.564Z,29.8
2019-05-13T15:12:02.725Z,29.8
2019-05-13T15:22:01.941Z,29.7
2019-05-13T15:32:02.020Z,29.7
2019-05-13T15:42:01.893Z,29.6
2019-05-13T15:52:01.712Z,29.6
2019-05-13T16:02:01.259Z,29.5
2019-05-13T16:11:58.009Z,29.1
2019-05-13T16:21:57.217Z,28.8
2019-05-13T16:31:56.439Z,28.7
2019-05-13T16:41:55.648Z,28.7
2019-05-13T16:51:54.862Z,28.3
2019-05-13T17:01:54.076Z,28
2019-05-13T17:11:53.298Z,27.9
2019-05-13T17:21:52.509Z,27.9
2019-05-13T17:31:51.721Z,27.9
2019-05-13T17:41:52.168Z,27.9
2019-05-13T17:51:51.653Z,27.9
2019-05-13T18:01:51.536Z,27.9
2019-05-13T18:11:48.581Z,27.6
2019-05-13T18:21:47.799Z,27.3
2019-05-13T18:31:47.017Z,27.3
2019-05-13T18:41:46.232Z,27.1
2019-05-13T18:51:45.492Z,26.8
2019-05-13T19:01:44.714Z,26.7
2019-05-13T19:11:43.879Z,26.6
2019-05-13T19:21:43.099Z,26.6
2019-05-13T19:31:42.302Z,26.6
2019-05-13T19:41:42.247Z,26.6
2019-05-13T19:51:41.550Z,26.5
2019-05-13T20:01:42.005Z,26.5
2019-05-13T20:11:39.157Z,26.4
2019-05-13T20:21:38.373Z,26.4
2019-05-13T20:31:37.596Z,26.4
2019-05-13T20:41:36.802Z,26.4
2019-05-13T20:51:36.015Z,26.4
2019-05-13T21:01:35.230Z,26.3
2019-05-13T21:07:02.746Z,26.3
2019-05-13T21:17:01.905Z,26.3
2019-05-13T21:27:01.928Z,26.3
2019-05-13T21:37:02.264Z,26.3
2019-05-13T21:47:01.984Z,26.2
2019-05-13T21:56:58.760Z,26.2
2019-05-13T22:06:57.968Z,26.2
2019-05-13T22:16:57.273Z,26.2
2019-05-13T22:26:56.571Z,26.1
2019-05-13T22:36:55.862Z,26.1
2019-05-13T22:46:55.165Z,26.1
2019-05-13T22:56:54.470Z,26.1
2019-05-13T23:06:53.723Z,26.1
2019-05-13T23:16:52.927Z,26
2019-05-13T23:26:52.191Z,26
2019-05-13T23:36:51.578Z,26
2019-05-13T23:46:51.378Z,25.9
2019-05-13T23:56:49.788Z,25.9
